Time;durP1;ratioP1;P1;durP2;ratioP2;P2;SDS_P1;SDS_P2;PMS_P1;PMS_P2;Temp;Humidity;BMP_temperature;BMP_pressure;BME280_temperature;BME280_humidity;BME280_pressure;Samples;Min_cycle;Max_cycle;Signal;HPM_P1;HPM_P2
2022/03/13 00:00:45;;;;;;;10.63;9.60;;;3.50;99.90;;;;;;4990656;28;20192;-69
2022/03/13 00:03:12;;;;;;;11.60;10.50;;;3.50;99.90;;;;;;4984862;28;20321;-68
2022/03/13 00:05:41;;;;;;;10.75;9.75;;;3.40;99.90;;;;;;4985729;28;20185;-68
2022/03/13 00:08:29;;;;;;;10.13;9.20;;;3.40;99.90;;;;;;4988369;28;20264;-68
2022/03/13 00:11:08;;;;;;;12.60;11.30;;;3.40;99.90;;;;;;4989568;28;20844;-67
2022/03/13 00:13:50;;;;;;;12.45;10.30;;;3.40;99.90;;;;;;4990476;28;20232;-68
2022/03/13 00:16:17;;;;;;;9.50;8.70;;;3.30;99.90;;;;;;4989280;28;20184;-68
2022/03/13 00:18:46;;;;;;;11.02;9.90;;;3.30;99.90;;;;;;4987887;28;20204;-67
2022/03/13 00:21:19;;;;;;;11.95;10.77;;;3.20;99.90;;;;;;4989435;28;20256;-66
2022/03/13 00:23:46;;;;;;;10.88;9.93;;;3.20;99.90;;;;;;4987987;28;20184;-67
2022/03/13 00:26:13;;;;;;;11.15;10.15;;;3.20;99.90;;;;;;4989610;28;20708;-68
2022/03/13 00:28:39;;;;;;;11.93;10.07;;;3.10;99.90;;;;;;4987646;28;20216;-68
2022/03/13 00:31:06;;;;;;;10.83;9.83;;;3.20;99.90;;;;;;4989702;28;20614;-68
2022/03/13 00:33:32;;;;;;;11.07;10.07;;;3.20;99.90;;;;;;4990154;28;20188;-68
2022/03/13 00:35:58;;;;;;;10.50;9.60;;;3.10;99.90;;;;;;4990626;28;20283;-68
2022/03/13 00:38:25;;;;;;;11.07;10.07;;;3.10;99.90;;;;;;4980572;28;20541;-69
2022/03/13 00:40:52;;;;;;;9.88;8.98;;;3.10;99.90;;;;;;4989899;28;20176;-68
2022/03/13 00:43:19;;;;;;;11.93;10.82;;;3.00;99.90;;;;;;4989870;28;20180;-70
2022/03/13 00:45:45;;;;;;;11.10;10.02;;;3.00;99.90;;;;;;4988604;28;20176;-68
2022/03/13 00:48:12;;;;;;;10.70;9.90;;;3.00;99.90;;;;;;4988926;28;20194;-68
2022/03/13 00:50:38;;;;;;;11.68;10.50;;;3.00;99.90;;;;;;4989984;28;20462;-68
2022/03/13 00:53:05;;;;;;;11.05;10.00;;;3.00;99.90;;;;;;4989121;28;20336;-68
2022/03/13 00:55:31;;;;;;;10.50;9.60;;;3.00;99.90;;;;;;4988325;28;20506;-59
2022/03/13 00:57:56;;;;;;;10.37;9.40;;;3.00;99.90;;;;;;4990550;28;20176;-68
2022/03/13 01:00:22;;;;;;;10.50;9.60;;;3.00;99.90;;;;;;4989261;28;20867;-69
2022/03/13 01:02:49;;;;;;;10.05;9.15;;;3.00;99.90;;;;;;4989232;28;20186;-68
2022/03/13 01:05:22;;;;;;;11.45;10.55;;;3.00;99.90;;;;;;4981614;28;20188;-68
2022/03/13 01:07:48;;;;;;;11.75;10.75;;;3.00;99.90;;;;;;4992115;28;20184;-68
2022/03/13 01:10:14;;;;;;;11.13;10.20;;;2.90;99.90;;;;;;5004630;28;20196;-68
2022/03/13 01:12:39;;;;;;;10.43;9.53;;;3.00;99.90;;;;;;4988563;28;20314;-68
2022/03/13 01:15:07;;;;;;;10.77;9.87;;;2.90;99.90;;;;;;4988282;28;20247;-68
2022/03/13 01:17:33;;;;;;;10.68;9.77;;;2.90;99.90;;;;;;4987669;28;20189;-67
2022/03/13 01:19:58;;;;;;;12.37;10.30;;;2.90;99.90;;;;;;4987654;28;20209;-68
2022/03/13 01:22:24;;;;;;;10.77;9.77;;;2.90;99.90;;;;;;4984902;28;20177;-69
2022/03/13 01:24:51;;;;;;;11.30;10.20;;;2.90;99.90;;;;;;4989478;28;20930;-68
2022/03/13 01:27:17;;;;;;;10.70;9.80;;;2.90;99.90;;;;;;4987954;28;20172;-68
2022/03/13 01:29:44;;;;;;;11.33;10.33;;;2.90;99.90;;;;;;4989676;28;20191;-69
2022/03/13 01:32:12;;;;;;;11.43;10.35;;;2.90;99.90;;;;;;4989041;28;20419;-68
2022/03/13 01:34:44;;;;;;;10.85;9.93;;;2.80;99.90;;;;;;4989586;28;20184;-68
2022/03/13 01:37:19;;;;;;;10.55;9.65;;;2.90;99.90;;;;;;4987154;28;20231;-68
2022/03/13 01:39:46;;;;;;;10.98;10.00;;;2.80;99.90;;;;;;4988202;28;20262;-69
2022/03/13 01:42:12;;;;;;;11.32;10.23;;;2.80;99.90;;;;;;4988487;28;20204;-68
2022/03/13 01:44:37;;;;;;;10.77;9.87;;;2.70;99.90;;;;;;4989375;28;20235;-68
2022/03/13 01:47:05;;;;;;;10.33;9.43;;;2.80;99.90;;;;;;4988177;28;20234;-67
2022/03/13 01:49:30;;;;;;;11.57;10.60;;;2.80;99.90;;;;;;4986654;28;20203;-68
2022/03/13 01:51:57;;;;;;;10.10;9.20;;;2.80;99.90;;;;;;4969952;28;20196;-68
2022/03/13 01:54:23;;;;;;;11.05;9.95;;;2.70;99.90;;;;;;4986968;28;20196;-68
2022/03/13 01:56:49;;;;;;;10.80;9.80;;;2.70;99.90;;;;;;4988311;28;20247;-67
2022/03/13 01:59:15;;;;;;;10.37;9.47;;;2.60;99.90;;;;;;4990795;28;20474;-68
2022/03/13 02:01:42;;;;;;;10.82;9.93;;;2.60;99.90;;;;;;4994359;28;20797;-68
2022/03/13 02:04:09;;;;;;;9.98;9.07;;;2.60;99.90;;;;;;4994709;28;20655;-68
2022/03/13 02:06:34;;;;;;;10.43;9.55;;;2.60;99.90;;;;;;4998500;28;20180;-68
2022/03/13 02:09:00;;;;;;;11.23;10.07;;;2.60;99.90;;;;;;4991794;28;20200;-68
2022/03/13 02:11:45;;;;;;;10.20;9.30;;;2.50;99.90;;;;;;4991420;28;20200;-67
2022/03/13 02:14:11;;;;;;;11.13;10.05;;;2.50;99.90;;;;;;4991821;28;20238;-67
2022/03/13 02:16:38;;;;;;;11.13;10.02;;;2.50;99.90;;;;;;4991278;28;20243;-68
2022/03/13 02:19:05;;;;;;;10.90;9.90;;;2.50;99.90;;;;;;4988400;28;20222;-68
2022/03/13 02:21:36;;;;;;;11.43;10.18;;;2.40;99.90;;;;;;4992565;28;20717;-69
2022/03/13 02:24:07;;;;;;;11.13;9.70;;;2.40;99.90;;;;;;4991436;28;20193;-69
2022/03/13 02:26:33;;;;;;;10.65;9.65;;;2.40;99.90;;;;;;4991990;28;20188;-69
2022/03/13 02:28:58;;;;;;;11.40;10.40;;;2.40;99.90;;;;;;4989158;28;20259;-69
2022/03/13 02:31:33;;;;;;;10.17;9.37;;;2.40;99.90;;;;;;4992873;28;20180;-68
2022/03/13 02:33:58;;;;;;;10.45;9.55;;;2.30;99.90;;;;;;4991837;28;20223;-67
2022/03/13 02:36:27;;;;;;;10.57;9.70;;;2.40;99.90;;;;;;4993188;28;20263;-69
2022/03/13 02:38:52;;;;;;;10.20;9.20;;;2.40;99.90;;;;;;4989908;28;20220;-68
2022/03/13 02:41:18;;;;;;;11.10;9.90;;;2.30;99.90;;;;;;4991848;28;20215;-68
2022/03/13 02:43:44;;;;;;;11.38;10.27;;;2.30;99.90;;;;;;4989799;28;20181;-68
2022/03/13 02:46:19;;;;;;;11.77;10.10;;;2.40;99.90;;;;;;4972048;28;20189;-68
2022/03/13 02:48:45;;;;;;;11.07;9.95;;;2.40;99.90;;;;;;4990172;28;20202;-68
2022/03/13 02:51:11;;;;;;;10.43;9.30;;;2.40;99.90;;;;;;4969326;28;20231;-68
2022/03/13 02:53:38;;;;;;;10.50;9.50;;;2.40;99.90;;;;;;4983766;28;20188;-68
2022/03/13 02:56:04;;;;;;;10.85;9.85;;;2.30;99.90;;;;;;4980793;28;20762;-68
2022/03/13 02:58:30;;;;;;;10.60;9.57;;;2.40;99.90;;;;;;4990031;28;20279;-68
2022/03/13 03:00:56;;;;;;;11.10;10.10;;;2.40;99.90;;;;;;4990591;28;20778;-64
2022/03/13 03:03:23;;;;;;;10.85;9.85;;;2.40;99.90;;;;;;4991664;28;20535;-68
2022/03/13 03:05:50;;;;;;;11.05;9.95;;;2.40;99.90;;;;;;4988943;28;20183;-68
2022/03/13 03:08:16;;;;;;;10.40;9.35;;;2.40;99.90;;;;;;4992346;28;20199;-64
2022/03/13 03:10:42;;;;;;;11.38;10.38;;;2.30;99.90;;;;;;4990217;28;20655;-67
2022/03/13 03:13:08;;;;;;;16.10;10.75;;;2.30;99.90;;;;;;4991108;28;20227;-67
2022/03/13 03:15:34;;;;;;;10.70;9.80;;;2.30;99.90;;;;;;4990454;28;20235;-68
2022/03/13 03:18:01;;;;;;;17.17;9.90;;;2.30;99.90;;;;;;4990581;28;20184;-67
2022/03/13 03:20:27;;;;;;;11.13;10.02;;;2.40;99.90;;;;;;4969338;28;20220;-68
2022/03/13 03:22:54;;;;;;;10.00;9.30;;;2.30;99.90;;;;;;4987130;28;20195;-67
2022/03/13 03:25:22;;;;;;;11.45;9.68;;;2.30;99.90;;;;;;4989903;28;20290;-67
2022/03/13 03:27:49;;;;;;;11.30;10.20;;;2.40;99.90;;;;;;4990944;28;20653;-59
2022/03/13 03:30:21;;;;;;;10.50;9.60;;;2.40;99.90;;;;;;4988077;28;20192;-67
2022/03/13 03:32:48;;;;;;;10.85;9.80;;;2.40;99.90;;;;;;4989444;28;20274;-67
2022/03/13 03:35:16;;;;;;;9.65;8.70;;;2.40;99.90;;;;;;4991196;28;20180;-70
2022/03/13 03:37:41;;;;;;;10.48;9.48;;;2.40;99.90;;;;;;4988712;28;20180;-68
2022/03/13 03:40:08;;;;;;;10.27;9.47;;;2.40;99.90;;;;;;4988916;28;20346;-67
2022/03/13 03:42:35;;;;;;;10.02;9.13;;;2.40;99.90;;;;;;4989834;28;20176;-67
2022/03/13 03:45:02;;;;;;;9.63;8.85;;;2.40;99.90;;;;;;4989511;28;20180;-68
2022/03/13 03:47:27;;;;;;;10.57;9.70;;;2.40;99.90;;;;;;4990949;28;20173;-65
2022/03/13 03:49:53;;;;;;;10.50;9.60;;;2.30;99.90;;;;;;4989347;28;20191;-67
2022/03/13 03:52:18;;;;;;;11.63;10.40;;;2.30;99.90;;;;;;4990372;28;20188;-67
2022/03/13 03:54:44;;;;;;;11.50;10.43;;;2.30;99.90;;;;;;4989932;28;20199;-68
2022/03/13 03:57:09;;;;;;;13.63;10.00;;;2.30;99.90;;;;;;4988740;28;20665;-68
2022/03/13 03:59:35;;;;;;;11.10;10.20;;;2.30;99.90;;;;;;4989744;28;20343;-68
2022/03/13 04:02:00;;;;;;;11.33;10.30;;;2.30;99.90;;;;;;4992152;28;20291;-68
2022/03/13 04:04:26;;;;;;;10.87;9.97;;;2.30;99.90;;;;;;4987827;28;20185;-68
2022/03/13 04:06:53;;;;;;;10.77;9.77;;;2.30;99.90;;;;;;4990603;28;20693;-68
2022/03/13 04:09:18;;;;;;;10.35;9.40;;;2.40;99.90;;;;;;4986706;28;20275;-67
2022/03/13 04:11:44;;;;;;;11.10;10.10;;;2.30;99.90;;;;;;4982665;28;20358;-68
2022/03/13 04:14:10;;;;;;;10.90;9.80;;;2.40;99.90;;;;;;4989438;28;20243;-68
2022/03/13 04:16:35;;;;;;;11.57;10.40;;;2.30;99.90;;;;;;4988791;28;20432;-67
2022/03/13 04:19:01;;;;;;;10.87;9.97;;;2.30;99.90;;;;;;4981583;28;20685;-67
2022/03/13 04:21:27;;;;;;;10.73;9.83;;;2.20;99.90;;;;;;4978619;28;20191;-69
2022/03/13 04:23:53;;;;;;;10.23;9.23;;;2.20;99.90;;;;;;4988872;28;20611;-67
2022/03/13 04:26:20;;;;;;;10.90;9.90;;;2.20;99.90;;;;;;4990116;28;20322;-60
2022/03/13 04:28:49;;;;;;;10.98;9.95;;;2.20;99.90;;;;;;4983107;28;20189;-67
2022/03/13 04:31:15;;;;;;;10.90;10.00;;;2.20;99.90;;;;;;4977725;28;20183;-67
2022/03/13 04:33:41;;;;;;;12.40;11.00;;;2.20;99.90;;;;;;4987805;28;20598;-68
2022/03/13 04:36:13;;;;;;;12.03;10.83;;;2.20;99.90;;;;;;4990889;28;20188;-67
2022/03/13 04:38:39;;;;;;;11.70;10.55;;;2.10;99.90;;;;;;4990071;28;20316;-68
2022/03/13 04:41:04;;;;;;;11.40;10.40;;;2.10;99.90;;;;;;4992181;28;20176;-64
2022/03/13 04:43:30;;;;;;;11.53;10.33;;;2.10;99.90;;;;;;4988082;28;20191;-67
2022/03/13 04:45:56;;;;;;;11.40;10.20;;;2.00;99.90;;;;;;4989749;28;20271;-64
2022/03/13 04:48:21;;;;;;;11.37;10.27;;;2.00;99.90;;;;;;4988980;28;20246;-67
2022/03/13 04:50:47;;;;;;;11.90;10.70;;;2.00;99.90;;;;;;4990165;28;20289;-68
2022/03/13 04:53:13;;;;;;;12.00;10.90;;;1.90;99.90;;;;;;4987583;28;20279;-66
2022/03/13 04:55:39;;;;;;;11.65;10.63;;;1.90;99.90;;;;;;4990211;28;20446;-67
2022/03/13 04:58:04;;;;;;;11.67;10.57;;;2.00;99.90;;;;;;4988545;28;20664;-67
2022/03/13 05:00:31;;;;;;;10.97;9.87;;;2.00;99.90;;;;;;4986318;28;20208;-67
2022/03/13 05:02:56;;;;;;;11.10;10.00;;;2.00;99.90;;;;;;4990402;28;20215;-61
2022/03/13 05:05:23;;;;;;;11.47;10.43;;;2.00;99.90;;;;;;4987865;28;22030;-67
2022/03/13 05:07:49;;;;;;;11.60;9.82;;;1.90;99.90;;;;;;4971445;28;20475;-67
2022/03/13 05:10:17;;;;;;;11.13;10.00;;;2.00;99.90;;;;;;4985809;28;20180;-68
2022/03/13 05:12:44;;;;;;;12.15;10.98;;;1.90;99.90;;;;;;4987468;28;20184;-68
2022/03/13 05:15:10;;;;;;;10.77;9.98;;;1.90;99.90;;;;;;4989974;28;20251;-68
2022/03/13 05:17:35;;;;;;;13.13;10.93;;;1.90;99.90;;;;;;4988422;28;20280;-68
2022/03/13 05:20:01;;;;;;;11.30;10.20;;;1.80;99.90;;;;;;4989691;28;20494;-68
2022/03/13 05:22:27;;;;;;;11.43;10.40;;;1.80;99.90;;;;;;4989321;28;20234;-69
2022/03/13 05:24:54;;;;;;;11.10;10.10;;;1.90;99.90;;;;;;4989289;28;20215;-69
2022/03/13 05:27:20;;;;;;;11.63;10.55;;;1.90;99.90;;;;;;4989018;28;20587;-69
2022/03/13 05:29:45;;;;;;;12.50;11.30;;;1.90;99.90;;;;;;4988112;28;20188;-68
2022/03/13 05:32:11;;;;;;;11.70;10.50;;;1.90;99.90;;;;;;4989100;28;20616;-69
2022/03/13 05:34:37;;;;;;;11.17;10.07;;;1.90;99.90;;;;;;4992162;28;20184;-67
2022/03/13 05:37:03;;;;;;;11.35;10.35;;;1.90;99.90;;;;;;4992369;28;20543;-68
2022/03/13 05:39:28;;;;;;;11.00;9.97;;;1.90;99.90;;;;;;4993217;28;20311;-68
2022/03/13 05:41:55;;;;;;;11.67;10.67;;;1.90;99.90;;;;;;4992824;28;20443;-68
2022/03/13 05:44:24;;;;;;;11.02;10.13;;;1.90;99.90;;;;;;4992796;28;20184;-65
2022/03/13 05:46:49;;;;;;;11.68;10.48;;;2.00;99.90;;;;;;4997343;28;20172;-68
2022/03/13 05:49:15;;;;;;;10.50;9.60;;;2.00;99.90;;;;;;4993636;28;21024;-68
2022/03/13 05:51:41;;;;;;;10.77;9.70;;;2.00;99.90;;;;;;4999322;28;20183;-68
2022/03/13 05:54:07;;;;;;;10.82;9.85;;;2.00;99.90;;;;;;5005154;28;20180;-68
2022/03/13 05:56:33;;;;;;;10.77;9.87;;;2.00;99.90;;;;;;4994275;28;20192;-68
2022/03/13 05:58:58;;;;;;;11.53;10.33;;;2.00;99.90;;;;;;4994756;28;20218;-68
2022/03/13 06:01:24;;;;;;;11.67;10.57;;;2.10;99.90;;;;;;4995300;28;20192;-67
2022/03/13 06:03:49;;;;;;;11.27;10.10;;;2.10;99.90;;;;;;4991061;28;20475;-68
2022/03/13 06:06:15;;;;;;;11.37;10.37;;;2.20;99.90;;;;;;4992112;28;20203;-68
2022/03/13 06:08:41;;;;;;;12.23;10.93;;;2.20;99.90;;;;;;4987173;28;20192;-67
2022/03/13 06:11:08;;;;;;;11.40;10.40;;;2.30;99.90;;;;;;4993167;28;20207;-68
2022/03/13 06:13:34;;;;;;;11.93;10.73;;;2.30;99.90;;;;;;4992718;28;20232;-69
2022/03/13 06:16:00;;;;;;;11.10;10.00;;;2.40;99.90;;;;;;4993549;28;20197;-68
2022/03/13 06:18:27;;;;;;;11.37;10.33;;;2.40;99.90;;;;;;4991456;28;20207;-67
2022/03/13 06:20:53;;;;;;;11.60;10.35;;;2.40;99.90;;;;;;4993978;28;20554;-67
2022/03/13 06:23:19;;;;;;;10.70;9.90;;;2.40;99.90;;;;;;4995421;28;20188;-68
2022/03/13 06:25:45;;;;;;;11.95;10.70;;;2.50;99.90;;;;;;5000889;28;20177;-68
2022/03/13 06:28:10;;;;;;;11.23;10.20;;;2.50;99.90;;;;;;4991628;28;20187;-67
2022/03/13 06:30:37;;;;;;;11.73;10.53;;;2.50;99.90;;;;;;4990190;28;20226;-68
2022/03/13 06:33:03;;;;;;;11.73;10.45;;;2.50;99.90;;;;;;4997344;28;20176;-68
2022/03/13 06:35:28;;;;;;;11.50;10.43;;;2.60;99.90;;;;;;4983107;28;20196;-67
2022/03/13 06:37:54;;;;;;;11.63;10.47;;;2.60;99.90;;;;;;4983413;28;20200;-68
2022/03/13 06:40:23;;;;;;;10.75;9.85;;;2.60;99.90;;;;;;4982102;28;20220;-68
2022/03/13 06:42:50;;;;;;;11.15;10.25;;;2.70;99.90;;;;;;4979395;28;20184;-66
2022/03/13 06:45:16;;;;;;;11.25;10.15;;;2.80;99.90;;;;;;4991790;28;20180;-63
2022/03/13 06:47:49;;;;;;;12.20;10.93;;;2.90;99.90;;;;;;4975543;28;20583;-68
2022/03/13 06:50:17;;;;;;;11.88;10.68;;;3.00;99.90;;;;;;4989014;28;20211;-68
2022/03/13 06:52:44;;;;;;;10.82;9.82;;;3.10;99.90;;;;;;4991595;28;20183;-68
2022/03/13 06:55:12;;;;;;;12.55;11.02;;;3.20;99.90;;;;;;4994475;28;20250;-67
2022/03/13 06:57:38;;;;;;;11.55;10.48;;;3.30;99.90;;;;;;4995722;28;20177;-68
2022/03/13 07:00:04;;;;;;;12.33;11.03;;;3.30;99.90;;;;;;4989965;28;20224;-68
2022/03/13 07:02:30;;;;;;;12.15;11.10;;;3.40;99.90;;;;;;4993832;28;20192;-66
2022/03/13 07:04:55;;;;;;;11.40;10.30;;;3.50;99.90;;;;;;4990218;28;20188;-65
2022/03/13 07:07:21;;;;;;;12.63;11.33;;;3.70;99.90;;;;;;4988985;28;20176;-67
2022/03/13 07:09:46;;;;;;;11.97;10.87;;;3.80;99.90;;;;;;4990193;28;20184;-67
2022/03/13 07:12:13;;;;;;;11.90;10.70;;;3.90;99.90;;;;;;4987112;28;20192;-66
2022/03/13 07:14:45;;;;;;;11.82;10.68;;;4.00;99.90;;;;;;4984905;28;20231;-67
2022/03/13 07:17:11;;;;;;;11.50;10.30;;;4.00;99.90;;;;;;4981439;28;20220;-66
2022/03/13 07:19:37;;;;;;;11.37;10.27;;;4.10;99.90;;;;;;4983400;28;20242;-67
2022/03/13 07:22:04;;;;;;;13.10;10.80;;;4.20;99.90;;;;;;4984742;28;20533;-66
2022/03/13 07:24:29;;;;;;;12.25;11.05;;;4.30;99.90;;;;;;4969730;28;20224;-66
2022/03/13 07:26:55;;;;;;;12.47;11.30;;;4.30;99.90;;;;;;4989375;28;20219;-65
2022/03/13 07:29:21;;;;;;;12.50;11.27;;;4.40;99.90;;;;;;4987517;28;20203;-67
2022/03/13 07:31:46;;;;;;;11.20;10.10;;;4.50;99.90;;;;;;4988169;28;20184;-67
2022/03/13 07:34:12;;;;;;;11.23;10.23;;;4.50;99.90;;;;;;4990313;28;20192;-67
2022/03/13 07:36:39;;;;;;;12.47;11.27;;;4.60;99.90;;;;;;4988765;28;20223;-67
2022/03/13 07:39:05;;;;;;;11.77;10.57;;;4.70;99.90;;;;;;4990978;28;20259;-67
2022/03/13 07:41:30;;;;;;;11.90;10.90;;;4.70;99.90;;;;;;4990653;28;20189;-67
2022/03/13 07:43:56;;;;;;;12.20;10.70;;;4.80;99.90;;;;;;4987683;28;20187;-68
2022/03/13 07:46:22;;;;;;;11.90;10.87;;;4.90;99.90;;;;;;4987031;28;20725;-67
2022/03/13 07:48:47;;;;;;;13.67;12.37;;;5.10;99.90;;;;;;4988959;28;20243;-67
2022/03/13 07:51:13;;;;;;;12.20;11.00;;;5.10;99.90;;;;;;4969993;28;20515;-67
2022/03/13 07:53:39;;;;;;;12.07;10.97;;;5.20;99.90;;;;;;4990038;28;20195;-66
2022/03/13 07:56:04;;;;;;;12.63;11.40;;;5.30;99.90;;;;;;4986472;28;20192;-64
2022/03/13 07:58:31;;;;;;;12.80;10.90;;;5.40;99.90;;;;;;4990422;28;20212;-67
2022/03/13 08:00:57;;;;;;;12.13;11.02;;;5.60;99.90;;;;;;4987318;28;20191;-67
2022/03/13 08:03:25;;;;;;;12.07;10.97;;;5.70;99.90;;;;;;4984355;28;20188;-67
2022/03/13 08:05:54;;;;;;;11.90;10.70;;;5.80;99.90;;;;;;4983710;28;20480;-67
2022/03/13 08:08:19;;;;;;;11.73;10.63;;;6.00;99.90;;;;;;4975418;28;20721;-66
2022/03/13 08:10:45;;;;;;;11.07;10.10;;;6.00;99.90;;;;;;4961432;28;20323;-68
2022/03/13 08:13:10;;;;;;;12.80;11.60;;;6.20;99.90;;;;;;4968566;28;20312;-66
2022/03/13 08:15:38;;;;;;;11.77;10.77;;;6.30;99.90;;;;;;4973007;28;20446;-66
2022/03/13 08:18:03;;;;;;;12.63;11.40;;;6.50;99.90;;;;;;4970397;28;20232;-68
2022/03/13 08:20:29;;;;;;;11.60;10.60;;;6.70;99.90;;;;;;4977043;28;20842;-67
2022/03/13 08:22:55;;;;;;;13.43;11.27;;;7.00;99.90;;;;;;4995243;28;20274;-68
2022/03/13 08:25:20;;;;;;;11.50;10.40;;;7.10;99.90;;;;;;4990898;28;20181;-70
2022/03/13 08:27:47;;;;;;;11.33;10.23;;;7.30;99.90;;;;;;4989227;28;20194;-67
2022/03/13 08:30:13;;;;;;;11.33;10.33;;;7.50;99.90;;;;;;4987944;28;20180;-66
2022/03/13 08:32:39;;;;;;;12.27;11.13;;;8.00;99.90;;;;;;4982816;28;20489;-67
2022/03/13 08:35:07;;;;;;;13.43;11.03;;;8.30;99.90;;;;;;4976784;28;20189;-67
2022/03/13 08:37:33;;;;;;;11.33;10.30;;;8.80;99.90;;;;;;4976094;28;20435;-68
2022/03/13 08:39:58;;;;;;;11.93;10.67;;;9.50;99.90;;;;;;4961814;28;20478;-68
2022/03/13 08:42:24;;;;;;;11.50;10.60;;;10.20;99.90;;;;;;4964531;28;20279;-69
2022/03/13 08:44:49;;;;;;;11.93;10.97;;;10.50;99.90;;;;;;4961932;28;20185;-68
2022/03/13 08:47:15;;;;;;;12.70;11.40;;;10.60;99.90;;;;;;4962288;28;20240;-68
2022/03/13 08:49:40;;;;;;;11.93;11.03;;;10.80;99.90;;;;;;4964485;28;20195;-68
2022/03/13 08:52:06;;;;;;;11.73;10.73;;;11.20;99.90;;;;;;4964148;28;20197;-70
2022/03/13 08:54:32;;;;;;;10.83;9.80;;;11.80;99.90;;;;;;4965489;28;20193;-66
2022/03/13 08:56:58;;;;;;;11.13;10.17;;;11.90;99.90;;;;;;4964038;28;20518;-69
2022/03/13 08:59:24;;;;;;;11.20;10.23;;;12.20;99.90;;;;;;4961970;28;20288;-66
2022/03/13 09:01:50;;;;;;;11.23;10.23;;;12.30;99.90;;;;;;4962858;28;20502;-65
2022/03/13 09:04:16;;;;;;;12.53;11.43;;;12.30;99.90;;;;;;4964660;28;20759;-65
2022/03/13 09:06:43;;;;;;;10.87;9.87;;;12.70;99.90;;;;;;4971038;28;20814;-65
2022/03/13 09:09:12;;;;;;;12.50;11.40;;;13.30;99.90;;;;;;5002444;28;20443;-64
2022/03/13 09:11:38;;;;;;;12.13;11.13;;;13.50;1.00;;;;;;4993633;28;20416;-64
2022/03/13 09:14:04;;;;;;;11.80;10.90;;;13.60;1.00;;;;;;4988844;28;20582;-62
2022/03/13 09:16:32;;;;;;;11.97;10.87;;;13.80;99.90;;;;;;4998176;28;20451;-61
2022/03/13 09:18:58;;;;;;;11.10;10.20;;;14.30;99.90;;;;;;4990531;28;20481;-62
2022/03/13 09:21:24;;;;;;;11.60;10.60;;;14.40;99.90;;;;;;4992102;28;20502;-62
2022/03/13 09:23:49;;;;;;;11.57;10.57;;;14.80;99.90;;;;;;4992051;28;20435;-63
2022/03/13 09:26:15;;;;;;;10.97;10.07;;;15.10;99.90;;;;;;4991010;28;20271;-61
2022/03/13 09:28:41;;;;;;;10.87;9.97;;;15.30;99.90;;;;;;4999570;28;20215;-63
2022/03/13 09:31:08;;;;;;;10.87;10.07;;;15.20;99.90;;;;;;4993937;28;20253;-63
2022/03/13 09:33:34;;;;;;;10.67;9.77;;;15.00;60.30;;;;;;4985180;28;20184;-62
2022/03/13 09:35:59;;;;;;;10.07;9.10;;;15.30;35.20;;;;;;4992120;28;20450;-63
2022/03/13 09:38:25;;;;;;;10.50;9.67;;;15.60;99.90;;;;;;4991799;28;20660;-62
2022/03/13 09:40:50;;;;;;;10.90;9.97;;;15.80;99.90;;;;;;4990654;28;20612;-62
2022/03/13 09:43:17;;;;;;;10.37;9.57;;;16.40;99.90;;;;;;4990510;28;21065;-62
2022/03/13 09:45:43;;;;;;;10.30;9.40;;;17.10;99.90;;;;;;4990781;28;20179;-62
2022/03/13 09:48:09;;;;;;;11.07;10.17;;;17.20;99.90;;;;;;4985257;28;20445;-64
2022/03/13 09:50:34;;;;;;;10.00;9.10;;;17.60;99.90;;;;;;4990482;28;20439;-63
2022/03/13 09:53:00;;;;;;;9.67;8.97;;;18.20;99.90;;;;;;4986453;28;20189;-64
2022/03/13 09:55:27;;;;;;;10.33;9.43;;;18.20;99.90;;;;;;4989429;28;20188;-64
2022/03/13 09:57:52;;;;;;;10.07;9.27;;;18.00;99.90;;;;;;4980006;28;20177;-63
2022/03/13 10:00:25;;;;;;;11.87;10.90;;;17.90;99.90;;;;;;4991232;28;20966;-63
2022/03/13 10:02:54;;;;;;;10.30;9.50;;;17.40;99.90;;;;;;4990127;28;20541;-62
2022/03/13 10:05:21;;;;;;;11.00;10.10;;;17.90;99.90;;;;;;4980311;28;20542;-63
2022/03/13 10:07:58;;;;;;;10.23;9.37;;;17.80;99.90;;;;;;4991191;28;20431;-63
2022/03/13 10:10:39;;;;;;;11.40;10.50;;;17.90;99.90;;;;;;4991302;28;20425;-62
2022/03/13 10:13:04;;;;;;;9.73;9.03;;;17.30;1.00;;;;;;4987560;28;20466;-62
2022/03/13 10:15:40;;;;;;;10.33;9.53;;;17.10;99.90;;;;;;4970543;28;20434;-62
2022/03/13 10:18:14;;;;;;;10.30;9.40;;;17.60;99.90;;;;;;4974244;28;20191;-63
2022/03/13 10:20:41;;;;;;;10.53;9.50;;;17.30;99.90;;;;;;4965722;28;20499;-62
2022/03/13 10:23:15;;;;;;;10.60;9.80;;;16.80;99.90;;;;;;4978456;28;20513;-62
2022/03/13 10:25:43;;;;;;;10.77;9.87;;;16.50;99.90;;;;;;4964344;28;20751;-63
2022/03/13 10:28:24;;;;;;;9.63;8.73;;;16.00;99.90;;;;;;4979373;28;20429;-62
2022/03/13 10:30:58;;;;;;;10.33;9.53;;;15.90;1.00;;;;;;4970824;28;20495;-63
2022/03/13 10:33:29;;;;;;;10.03;9.23;;;16.30;99.90;;;;;;4967797;28;20925;-63
2022/03/13 10:36:11;;;;;;;10.80;10.00;;;16.70;99.90;;;;;;4969491;28;20440;-63
2022/03/13 10:38:37;;;;;;;9.97;9.17;;;16.80;99.90;;;;;;4968782;28;20912;-63
2022/03/13 10:41:11;;;;;;;10.67;9.77;;;16.90;99.90;;;;;;4967210;28;20452;-63
2022/03/13 10:43:55;;;;;;;9.67;8.90;;;16.80;99.90;;;;;;4979499;28;20798;-63
2022/03/13 10:46:29;;;;;;;11.17;10.27;;;17.60;99.90;;;;;;4977178;28;20954;-63
2022/03/13 10:48:56;;;;;;;10.20;9.50;;;18.00;99.90;;;;;;4976565;28;20852;-63
2022/03/13 10:51:41;;;;;;;9.50;8.70;;;17.50;99.90;;;;;;4981274;28;20426;-62
2022/03/13 10:54:07;;;;;;;10.80;9.97;;;17.00;99.90;;;;;;4975589;28;20441;-64
2022/03/13 10:56:33;;;;;;;10.30;9.60;;;16.70;99.90;;;;;;4984532;28;21234;-64
2022/03/13 10:58:59;;;;;;;10.80;9.90;;;17.20;99.90;;;;;;4978749;28;20306;-64
2022/03/13 11:01:31;;;;;;;9.97;9.17;;;17.60;99.90;;;;;;4978531;28;20347;-64
2022/03/13 11:04:02;;;;;;;10.93;10.10;;;17.50;99.90;;;;;;4981714;28;20442;-63
2022/03/13 11:06:29;;;;;;;10.50;9.70;;;16.70;99.90;;;;;;4991874;28;20430;-63
2022/03/13 11:08:55;;;;;;;10.73;9.73;;;15.70;99.90;;;;;;4977857;28;20440;-62
2022/03/13 11:11:22;;;;;;;10.07;9.37;;;15.60;99.90;;;;;;4990981;28;20452;-63
2022/03/13 11:13:52;;;;;;;10.27;9.47;;;16.90;99.90;;;;;;4989012;28;20231;-63
2022/03/13 11:16:29;;;;;;;10.10;9.33;;;17.50;99.90;;;;;;4981661;28;21382;-63
2022/03/13 11:18:57;;;;;;;9.70;8.97;;;18.70;99.90;;;;;;4989873;28;20490;-63
2022/03/13 11:21:23;;;;;;;11.10;10.20;;;19.50;99.90;;;;;;4988778;28;20457;-63
2022/03/13 11:23:49;;;;;;;10.93;10.10;;;19.50;99.90;;;;;;4986703;28;20938;-62
2022/03/13 11:26:18;;;;;;;10.47;9.77;;;19.10;99.90;;;;;;4989613;28;20486;-63
2022/03/13 11:28:44;;;;;;;10.20;9.23;;;18.50;99.90;;;;;;4988885;28;20446;-63
2022/03/13 11:31:33;;;;;;;10.87;9.97;;;18.30;99.90;;;;;;4986315;28;20447;-61
2022/03/13 11:34:18;;;;;;;10.60;9.70;;;18.40;99.90;;;;;;4986864;28;20514;-63
2022/03/13 11:36:46;;;;;;;10.60;9.80;;;18.50;99.90;;;;;;4990794;28;20435;-62
2022/03/13 11:39:25;;;;;;;11.10;10.23;;;18.60;99.90;;;;;;4989493;28;20455;-62
2022/03/13 11:41:51;;;;;;;10.80;9.90;;;18.90;99.90;;;;;;4977958;28;20508;-62
2022/03/13 11:44:22;;;;;;;11.00;10.10;;;19.90;99.90;;;;;;4975405;28;20423;-63
2022/03/13 11:46:53;;;;;;;10.50;9.60;;;19.40;99.90;;;;;;4978169;28;20189;-63
2022/03/13 11:49:30;;;;;;;10.57;9.77;;;19.10;99.90;;;;;;4974289;28;21005;-64
2022/03/13 11:52:17;;;;;;;10.30;9.40;;;18.80;99.90;;;;;;4975733;28;20480;-63
2022/03/13 11:54:46;;;;;;;9.93;9.20;;;18.30;99.90;;;;;;4975272;28;20456;-63
2022/03/13 11:57:14;;;;;;;10.27;9.47;;;19.30;99.90;;;;;;4975413;28;20522;-63
2022/03/13 11:59:39;;;;;;;10.83;9.93;;;18.20;99.90;;;;;;4973563;28;21271;-63
2022/03/13 12:02:12;;;;;;;10.43;9.50;;;18.50;99.90;;;;;;4976936;28;20444;-62
2022/03/13 12:04:38;;;;;;;10.70;9.80;;;18.80;99.90;;;;;;4976081;28;20646;-62
2022/03/13 12:07:23;;;;;;;9.87;9.07;;;18.00;99.90;;;;;;4989081;28;20415;-62
2022/03/13 12:09:49;;;;;;;11.00;10.20;;;19.00;99.90;;;;;;4987014;28;20205;-62
2022/03/13 12:12:17;;;;;;;9.63;8.93;;;20.30;99.90;;;;;;4988221;28;20441;-62
2022/03/13 12:15:05;;;;;;;11.13;10.30;;;21.00;99.90;;;;;;4986669;28;20251;-62
2022/03/13 12:17:45;;;;;;;11.37;10.47;;;21.00;99.90;;;;;;4983481;28;20794;-63
2022/03/13 12:20:24;;;;;;;10.53;9.73;;;21.30;99.90;;;;;;4985690;28;20501;-62
2022/03/13 12:22:54;;;;;;;10.70;9.90;;;22.00;99.90;;;;;;4974373;28;21407;-62
2022/03/13 12:25:32;;;;;;;10.73;9.90;;;22.70;99.90;;;;;;4974793;28;20475;-61
2022/03/13 12:28:01;;;;;;;9.83;9.00;;;23.00;99.90;;;;;;4970158;28;20404;-62
2022/03/13 12:30:29;;;;;;;10.60;9.83;;;23.40;99.90;;;;;;4971696;28;20445;-62
2022/03/13 12:32:59;;;;;;;10.40;9.60;;;23.80;99.90;;;;;;4969662;28;20503;-64
2022/03/13 12:35:26;;;;;;;10.10;9.30;;;23.20;99.90;;;;;;4988043;28;21063;-62
2022/03/13 12:38:00;;;;;;;10.77;9.97;;;23.00;99.90;;;;;;4989992;28;20513;-63
2022/03/13 12:40:27;;;;;;;10.63;9.73;;;23.50;99.90;;;;;;4989635;28;20458;-63